Time;durP1;ratioP1;P1;durP2;ratioP2;P2;SDS_P1;SDS_P2;PMS_P1;PMS_P2;Temp;Humidity;BMP_temperature;BMP_pressure;BME280_temperature;BME280_humidity;BME280_pressure;Samples;Min_cycle;Max_cycle;Signal;HPM_P1;HPM_P2
2023/11/07 00:01:07;;;;;;;0.77;0.50;;;;;;;;;;5066608;28;20017;-59
2023/11/07 00:03:34;;;;;;;0.07;0.07;;;;;;;;;;5069429;28;20032;-58
2023/11/07 00:06:01;;;;;;;0.38;0.20;;;;;;;;;;5070700;28;20059;-58
2023/11/07 00:08:27;;;;;;;2.07;0.27;;;;;;;;;;5072402;28;20028;-58
2023/11/07 00:10:54;;;;;;;8.87;0.73;;;;;;;;;;5071944;28;20104;-58
2023/11/07 00:13:21;;;;;;;0.20;0.10;;;;;;;;;;5082262;28;20016;-58
2023/11/07 00:15:47;;;;;;;0.93;0.40;;;;;;;;;;5092398;28;20028;-58
2023/11/07 00:18:14;;;;;;;0.60;0.40;;;;;;;;;;5076020;28;20031;-59
2023/11/07 00:20:41;;;;;;;0.23;0.23;;;;;;;;;;5067269;28;20032;-58
2023/11/07 00:23:08;;;;;;;0.50;0.43;;;;;;;;;;5067104;28;20510;-58
2023/11/07 00:25:34;;;;;;;5.53;0.60;;;;;;;;;;5066929;28;20108;-58
2023/11/07 00:28:02;;;;;;;0.73;0.57;;;;;;;;;;5082335;28;20495;-58
2023/11/07 00:30:29;;;;;;;0.50;0.33;;;;;;;;;;5092018;28;20028;-58
2023/11/07 00:32:56;;;;;;;0.40;0.30;;;;;;;;;;5084526;28;20379;-59
2023/11/07 00:35:22;;;;;;;0.23;0.20;;;;;;;;;;5072088;28;20430;-58
2023/11/07 00:37:51;;;;;;;7.47;0.43;;;;;;;;;;5072133;28;20020;-58
2023/11/07 00:40:18;;;;;;;3.30;1.63;;;;;;;;;;5069091;28;20017;-58
2023/11/07 00:42:45;;;;;;;2.10;1.23;;;;;;;;;;5068504;28;20038;-58
2023/11/07 00:45:11;;;;;;;5.80;0.63;;;;;;;;;;5066369;28;20058;-58
2023/11/07 00:47:38;;;;;;;0.87;0.50;;;;;;;;;;5066742;28;20024;-59
2023/11/07 00:50:05;;;;;;;2.07;0.80;;;;;;;;;;5068506;28;20013;-58
2023/11/07 00:52:32;;;;;;;0.73;0.50;;;;;;;;;;5071779;28;20391;-58
2023/11/07 00:55:00;;;;;;;1.03;0.53;;;;;;;;;;5051863;28;20036;-58
2023/11/07 00:57:26;;;;;;;1.90;0.83;;;;;;;;;;5051692;28;20029;-58
2023/11/07 00:59:53;;;;;;;1.20;0.57;;;;;;;;;;5051749;28;20029;-58
2023/11/07 01:02:20;;;;;;;0.40;0.30;;;;;;;;;;5049618;28;20395;-58
2023/11/07 01:04:48;;;;;;;3.23;0.50;;;;;;;;;;5066465;28;20742;-58
2023/11/07 01:07:14;;;;;;;1.47;0.60;;;;;;;;;;5066399;28;20037;-58
2023/11/07 01:09:41;;;;;;;1.20;0.60;;;;;;;;;;5066604;28;20104;-58
2023/11/07 01:12:11;;;;;;;1.97;0.90;;;;;;;;;;5070654;28;20031;-58
2023/11/07 01:14:38;;;;;;;1.20;0.80;;;;;;;;;;5093548;28;20035;-59
2023/11/07 01:17:04;;;;;;;1.80;0.87;;;;;;;;;;5095961;28;20031;-58
2023/11/07 01:19:31;;;;;;;2.60;1.40;;;;;;;;;;5095800;28;20027;-58
2023/11/07 01:21:58;;;;;;;1.00;0.70;;;;;;;;;;5095047;28;20062;-58
2023/11/07 01:24:24;;;;;;;3.23;1.00;;;;;;;;;;5094499;28;20032;-58
2023/11/07 01:26:51;;;;;;;0.93;0.57;;;;;;;;;;5071711;28;20040;-58
2023/11/07 01:29:18;;;;;;;1.63;1.00;;;;;;;;;;5069918;28;20107;-58
2023/11/07 01:31:51;;;;;;;1.33;0.53;;;;;;;;;;5070201;28;20016;-58
2023/11/07 01:34:17;;;;;;;0.43;0.33;;;;;;;;;;5070692;28;20029;-58
2023/11/07 01:36:44;;;;;;;18.37;0.83;;;;;;;;;;5075865;28;20016;-58
2023/11/07 01:39:10;;;;;;;0.60;0.40;;;;;;;;;;5074579;28;20059;-58
2023/11/07 01:41:38;;;;;;;3.33;0.90;;;;;;;;;;5074997;28;20391;-58
2023/11/07 01:44:05;;;;;;;1.93;1.00;;;;;;;;;;5075016;28;20467;-58
2023/11/07 01:46:32;;;;;;;4.27;1.07;;;;;;;;;;5074532;28;20395;-58
2023/11/07 01:48:59;;;;;;;0.33;0.30;;;;;;;;;;5069966;28;20067;-58
2023/11/07 01:51:26;;;;;;;2.07;0.77;;;;;;;;;;5069850;28;20035;-58
2023/11/07 01:53:52;;;;;;;1.73;1.00;;;;;;;;;;5069841;28;20024;-58
2023/11/07 01:56:19;;;;;;;0.40;0.30;;;;;;;;;;5069437;28;20068;-58
2023/11/07 01:58:46;;;;;;;0.80;0.50;;;;;;;;;;5076036;28;20056;-58
2023/11/07 02:01:13;;;;;;;1.10;0.67;;;;;;;;;;5095083;28;20074;-58
2023/11/07 02:03:39;;;;;;;3.07;0.73;;;;;;;;;;5094848;28;20016;-58
2023/11/07 02:06:09;;;;;;;1.50;0.70;;;;;;;;;;5094962;28;20071;-57
2023/11/07 02:08:36;;;;;;;0.43;0.33;;;;;;;;;;5094839;28;20035;-58
2023/11/07 02:11:02;;;;;;;5.77;0.83;;;;;;;;;;5089300;28;20020;-58
2023/11/07 02:13:29;;;;;;;2.13;0.50;;;;;;;;;;5089166;28;20027;-58
2023/11/07 02:15:56;;;;;;;0.40;0.27;;;;;;;;;;5089178;28;20020;-58
2023/11/07 02:18:22;;;;;;;0.23;0.23;;;;;;;;;;5085971;28;20088;-58
2023/11/07 02:20:49;;;;;;;1.27;0.60;;;;;;;;;;5062910;28;20021;-58
2023/11/07 02:23:19;;;;;;;0.77;0.43;;;;;;;;;;5073661;28;20111;-58
2023/11/07 02:25:51;;;;;;;0.80;0.60;;;;;;;;;;5074264;28;20112;-58
2023/11/07 02:28:17;;;;;;;7.30;0.70;;;;;;;;;;5074109;28;20078;-58
2023/11/07 02:30:47;;;;;;;1.33;0.60;;;;;;;;;;5074013;28;20052;-58
2023/11/07 02:33:14;;;;;;;0.50;0.33;;;;;;;;;;5069440;28;20025;-58
2023/11/07 02:35:44;;;;;;;0.73;0.40;;;;;;;;;;5069011;28;20035;-58
2023/11/07 02:38:11;;;;;;;0.70;0.43;;;;;;;;;;5048996;28;20025;-58
2023/11/07 02:40:37;;;;;;;0.60;0.43;;;;;;;;;;5048805;28;20071;-58
2023/11/07 02:43:04;;;;;;;1.13;0.60;;;;;;;;;;5052515;28;20384;-58
2023/11/07 02:45:31;;;;;;;0.80;0.70;;;;;;;;;;5053767;28;20051;-58
2023/11/07 02:47:58;;;;;;;1.80;0.97;;;;;;;;;;5053420;28;20488;-58
2023/11/07 02:50:25;;;;;;;0.87;0.60;;;;;;;;;;5053924;28;20128;-58
2023/11/07 02:52:51;;;;;;;2.83;1.07;;;;;;;;;;5053894;28;20539;-58
2023/11/07 02:55:18;;;;;;;1.13;0.73;;;;;;;;;;5049965;28;20098;-58
2023/11/07 02:57:45;;;;;;;2.00;0.77;;;;;;;;;;5048340;28;20573;-58
2023/11/07 03:00:13;;;;;;;3.60;1.20;;;;;;;;;;5048667;28;20029;-58
2023/11/07 03:02:39;;;;;;;0.20;0.13;;;;;;;;;;5048490;28;20380;-58
2023/11/07 03:05:07;;;;;;;1.13;0.60;;;;;;;;;;5050895;28;20542;-58
2023/11/07 03:07:34;;;;;;;0.37;0.30;;;;;;;;;;5053503;28;20349;-58
2023/11/07 03:10:02;;;;;;;0.67;0.50;;;;;;;;;;5053293;28;20028;-58
2023/11/07 03:12:29;;;;;;;0.30;0.23;;;;;;;;;;5055013;28;20628;-58
2023/11/07 03:14:58;;;;;;;1.03;0.50;;;;;;;;;;5073345;28;20543;-58
2023/11/07 03:17:25;;;;;;;3.20;1.00;;;;;;;;;;5070208;28;20028;-57
2023/11/07 03:19:53;;;;;;;1.20;0.70;;;;;;;;;;5068212;28;20768;-58
2023/11/07 03:22:20;;;;;;;1.03;0.40;;;;;;;;;;5067658;28;20502;-57
2023/11/07 03:24:50;;;;;;;0.83;0.57;;;;;;;;;;5068057;28;20035;-59
2023/11/07 03:27:17;;;;;;;2.10;0.47;;;;;;;;;;5070707;28;20107;-58
2023/11/07 03:29:43;;;;;;;1.50;0.73;;;;;;;;;;5072963;28;20384;-57
2023/11/07 03:32:11;;;;;;;0.63;0.40;;;;;;;;;;5072892;28;20021;-58
2023/11/07 03:34:38;;;;;;;1.27;0.67;;;;;;;;;;5071973;28;20032;-58
2023/11/07 03:37:05;;;;;;;4.33;0.70;;;;;;;;;;5072843;28;20021;-58
2023/11/07 03:39:32;;;;;;;11.57;1.03;;;;;;;;;;5069874;28;20487;-58
2023/11/07 03:41:59;;;;;;;1.40;0.67;;;;;;;;;;5067624;28;20028;-58
2023/11/07 03:44:26;;;;;;;1.97;0.67;;;;;;;;;;5067461;28;20024;-58
2023/11/07 03:46:53;;;;;;;0.93;0.53;;;;;;;;;;5067772;28;20078;-58
2023/11/07 03:49:19;;;;;;;3.50;1.03;;;;;;;;;;5069555;28;20025;-58
2023/11/07 03:51:47;;;;;;;1.40;0.43;;;;;;;;;;5072614;28;20071;-57
2023/11/07 03:54:13;;;;;;;0.67;0.50;;;;;;;;;;5072548;28;20430;-58
2023/11/07 03:56:40;;;;;;;0.67;0.50;;;;;;;;;;5071957;28;20028;-58
2023/11/07 03:59:07;;;;;;;1.77;0.73;;;;;;;;;;5073007;28;20400;-58
2023/11/07 04:01:37;;;;;;;2.20;0.40;;;;;;;;;;5090676;28;20027;-57
2023/11/07 04:04:04;;;;;;;0.63;0.50;;;;;;;;;;5087739;28;20020;-57
2023/11/07 04:06:31;;;;;;;2.13;0.83;;;;;;;;;;5087477;28;20025;-58
2023/11/07 04:08:58;;;;;;;1.20;0.73;;;;;;;;;;5085372;28;20066;-58
2023/11/07 04:11:25;;;;;;;1.17;0.70;;;;;;;;;;5088848;28;20106;-58
2023/11/07 04:13:52;;;;;;;0.40;0.20;;;;;;;;;;5091963;28;20024;-58
2023/11/07 04:16:19;;;;;;;0.87;0.50;;;;;;;;;;5092519;28;20101;-57
2023/11/07 04:18:46;;;;;;;0.60;0.30;;;;;;;;;;5079701;28;20055;-58
2023/11/07 04:21:12;;;;;;;0.20;0.20;;;;;;;;;;5072244;28;20025;-57
2023/11/07 04:23:42;;;;;;;0.57;0.40;;;;;;;;;;5081031;28;20046;-58
2023/11/07 04:26:08;;;;;;;0.60;0.33;;;;;;;;;;5087277;28;20034;-57
2023/11/07 04:28:39;;;;;;;0.67;0.40;;;;;;;;;;5087178;28;20028;-57
2023/11/07 04:31:07;;;;;;;3.07;0.63;;;;;;;;;;5086956;28;20043;-58
2023/11/07 04:33:34;;;;;;;1.43;0.60;;;;;;;;;;5078505;28;20035;-58
2023/11/07 04:36:01;;;;;;;1.00;0.30;;;;;;;;;;5071077;28;20056;-58
2023/11/07 04:38:30;;;;;;;0.20;0.20;;;;;;;;;;5052099;28;20029;-58
2023/11/07 04:40:57;;;;;;;0.50;0.40;;;;;;;;;;5052072;28;20021;-57
2023/11/07 04:43:25;;;;;;;0.63;0.50;;;;;;;;;;5066640;28;20479;-58
2023/11/07 04:45:51;;;;;;;1.07;0.63;;;;;;;;;;5092687;28;20081;-59
2023/11/07 04:48:19;;;;;;;1.47;0.70;;;;;;;;;;5080142;28;20073;-57
2023/11/07 04:50:46;;;;;;;0.27;0.27;;;;;;;;;;5073730;28;20028;-58
2023/11/07 04:53:12;;;;;;;7.77;0.47;;;;;;;;;;5093801;28;20028;-58
2023/11/07 04:55:39;;;;;;;0.63;0.40;;;;;;;;;;5087579;28;20511;-58
2023/11/07 04:58:06;;;;;;;2.53;0.80;;;;;;;;;;5086159;28;20174;-58
2023/11/07 05:00:33;;;;;;;0.67;0.50;;;;;;;;;;5098374;28;20467;-58
2023/11/07 05:02:59;;;;;;;0.67;0.50;;;;;;;;;;5093699;28;20118;-58
2023/11/07 05:05:26;;;;;;;2.10;0.73;;;;;;;;;;5098361;28;20389;-58
2023/11/07 05:07:53;;;;;;;2.50;0.40;;;;;;;;;;5098403;28;20074;-57
2023/11/07 05:10:20;;;;;;;0.60;0.47;;;;;;;;;;5085591;28;20112;-57
2023/11/07 05:12:46;;;;;;;0.73;0.50;;;;;;;;;;5073130;28;20434;-57
2023/11/07 05:15:13;;;;;;;0.30;0.20;;;;;;;;;;5073186;28;20024;-57
2023/11/07 05:17:40;;;;;;;0.93;0.50;;;;;;;;;;5072976;28;20017;-58
2023/11/07 05:20:10;;;;;;;3.00;0.70;;;;;;;;;;5098008;28;20109;-57
2023/11/07 05:22:37;;;;;;;0.10;0.10;;;;;;;;;;5098101;28;20043;-57
2023/11/07 05:25:07;;;;;;;0.10;0.10;;;;;;;;;;5098648;28;20024;-57
2023/11/07 05:27:34;;;;;;;0.27;0.27;;;;;;;;;;5091078;28;20031;-57
2023/11/07 05:30:01;;;;;;;0.37;0.30;;;;;;;;;;5078394;28;20494;-57
2023/11/07 05:32:28;;;;;;;0.47;0.30;;;;;;;;;;5074778;28;20048;-57
2023/11/07 05:34:55;;;;;;;1.27;0.60;;;;;;;;;;5093441;28;20028;-58
2023/11/07 05:37:21;;;;;;;1.10;0.70;;;;;;;;;;5085534;28;20024;-57
2023/11/07 05:39:50;;;;;;;1.30;0.60;;;;;;;;;;5064220;28;20710;-58
2023/11/07 05:42:17;;;;;;;0.60;0.27;;;;;;;;;;5058275;28;20041;-57
2023/11/07 05:44:43;;;;;;;0.63;0.30;;;;;;;;;;5058029;28;20072;-57
2023/11/07 05:47:10;;;;;;;0.57;0.40;;;;;;;;;;5076000;28;20020;-58
2023/11/07 05:49:37;;;;;;;0.50;0.33;;;;;;;;;;5098313;28;20024;-58
2023/11/07 05:52:04;;;;;;;0.70;0.57;;;;;;;;;;5097988;28;20081;-58
2023/11/07 05:54:30;;;;;;;3.40;0.70;;;;;;;;;;5094386;28;20094;-57
2023/11/07 05:56:57;;;;;;;1.97;0.87;;;;;;;;;;5084264;28;20024;-57
2023/11/07 05:59:25;;;;;;;2.67;0.50;;;;;;;;;;5089651;28;20034;-57
2023/11/07 06:01:53;;;;;;;0.50;0.33;;;;;;;;;;5089835;28;20391;-57
2023/11/07 06:04:30;;;;;;;0.23;0.17;;;;;;;;;;5093256;28;20107;-57
2023/11/07 06:06:58;;;;;;;2.17;0.67;;;;;;;;;;5093875;28;20429;-57
2023/11/07 06:09:24;;;;;;;1.23;0.73;;;;;;;;;;5074506;28;20108;-58
2023/11/07 06:11:51;;;;;;;1.40;0.70;;;;;;;;;;5074368;28;20032;-57
2023/11/07 06:14:18;;;;;;;0.40;0.30;;;;;;;;;;5074579;28;20122;-57
2023/11/07 06:16:44;;;;;;;1.73;0.77;;;;;;;;;;5070972;28;20028;-58
2023/11/07 06:19:11;;;;;;;0.77;0.37;;;;;;;;;;5069663;28;20174;-57
2023/11/07 06:21:38;;;;;;;2.70;0.57;;;;;;;;;;5069867;28;20096;-57
2023/11/07 06:24:05;;;;;;;0.40;0.33;;;;;;;;;;5089846;28;20020;-57
2023/11/07 06:26:31;;;;;;;0.97;0.43;;;;;;;;;;5092210;28;20036;-58
2023/11/07 06:28:58;;;;;;;0.83;0.30;;;;;;;;;;5077834;28;20112;-58
2023/11/07 06:31:25;;;;;;;0.40;0.30;;;;;;;;;;5074235;28;20016;-58
2023/11/07 06:33:52;;;;;;;0.20;0.20;;;;;;;;;;5074253;28;20052;-58
2023/11/07 06:36:19;;;;;;;0.77;0.60;;;;;;;;;;5074119;28;20021;-58
2023/11/07 06:38:46;;;;;;;1.00;0.47;;;;;;;;;;5071361;28;20024;-58
2023/11/07 06:41:13;;;;;;;0.80;0.57;;;;;;;;;;5069188;28;20141;-57
2023/11/07 06:43:42;;;;;;;1.77;0.73;;;;;;;;;;5068962;28;20036;-57
2023/11/07 06:46:09;;;;;;;0.93;0.50;;;;;;;;;;5068636;28;20037;-57
2023/11/07 06:48:36;;;;;;;0.30;0.30;;;;;;;;;;5071038;28;20515;-57
2023/11/07 06:51:02;;;;;;;0.23;0.23;;;;;;;;;;5073970;28;20021;-57
2023/11/07 06:53:30;;;;;;;0.40;0.27;;;;;;;;;;5074111;28;20378;-58
2023/11/07 06:55:57;;;;;;;0.40;0.30;;;;;;;;;;5073895;28;20059;-58
2023/11/07 06:58:24;;;;;;;0.90;0.50;;;;;;;;;;5073618;28;20052;-57
2023/11/07 07:00:54;;;;;;;0.33;0.30;;;;;;;;;;5071369;28;20059;-57
2023/11/07 07:03:25;;;;;;;0.53;0.27;;;;;;;;;;5068373;28;20557;-58
2023/11/07 07:05:52;;;;;;;0.20;0.20;;;;;;;;;;5068460;28;20036;-57
2023/11/07 07:08:19;;;;;;;0.10;0.10;;;;;;;;;;5068496;28;20036;-58
2023/11/07 07:10:46;;;;;;;1.30;0.63;;;;;;;;;;5070433;28;20027;-57
2023/11/07 07:13:12;;;;;;;0.93;0.63;;;;;;;;;;5073443;28;20038;-57
2023/11/07 07:15:41;;;;;;;1.33;0.70;;;;;;;;;;5073473;28;20438;-57
2023/11/07 07:18:08;;;;;;;2.33;0.83;;;;;;;;;;5072246;28;20064;-57
2023/11/07 07:20:36;;;;;;;1.23;0.70;;;;;;;;;;5075690;28;20103;-57
2023/11/07 07:23:07;;;;;;;1.20;0.70;;;;;;;;;;5077582;28;20053;-57
2023/11/07 07:25:36;;;;;;;2.03;0.83;;;;;;;;;;5068325;28;20439;-57
2023/11/07 07:28:04;;;;;;;0.30;0.20;;;;;;;;;;5068089;28;20384;-57
2023/11/07 07:30:32;;;;;;;1.80;0.87;;;;;;;;;;5068387;28;20086;-58
2023/11/07 07:32:59;;;;;;;0.57;0.40;;;;;;;;;;5069466;28;20064;-57
2023/11/07 07:35:32;;;;;;;0.43;0.40;;;;;;;;;;5072859;28;20489;-57
2023/11/07 07:38:03;;;;;;;1.50;0.80;;;;;;;;;;5073079;28;20086;-57
2023/11/07 07:40:31;;;;;;;1.67;0.87;;;;;;;;;;5073009;28;20025;-58
2023/11/07 07:42:59;;;;;;;0.30;0.27;;;;;;;;;;5072916;28;20040;-57
2023/11/07 07:45:26;;;;;;;1.73;0.53;;;;;;;;;;5070682;28;20052;-57
2023/11/07 07:47:54;;;;;;;0.60;0.50;;;;;;;;;;5067654;28;20070;-57
2023/11/07 07:50:20;;;;;;;1.47;0.87;;;;;;;;;;5067839;28;20069;-57
2023/11/07 07:52:53;;;;;;;2.53;1.03;;;;;;;;;;5067873;28;20444;-57
2023/11/07 07:55:20;;;;;;;1.27;0.60;;;;;;;;;;5069019;28;20111;-57
2023/11/07 07:57:47;;;;;;;0.40;0.40;;;;;;;;;;5058410;28;20581;-57
2023/11/07 08:00:14;;;;;;;1.00;0.70;;;;;;;;;;5052509;28;20538;-57
2023/11/07 08:02:45;;;;;;;6.80;0.90;;;;;;;;;;5052696;28;20032;-57
2023/11/07 08:05:17;;;;;;;0.70;0.53;;;;;;;;;;5052426;28;20519;-57
2023/11/07 08:07:44;;;;;;;1.80;0.50;;;;;;;;;;5051613;28;20037;-57
2023/11/07 08:10:16;;;;;;;0.70;0.60;;;;;;;;;;5067638;28;20356;-57
2023/11/07 08:12:47;;;;;;;0.80;0.63;;;;;;;;;;5067283;28;20495;-57
2023/11/07 08:15:14;;;;;;;7.20;0.93;;;;;;;;;;5067392;28;20531;-57
2023/11/07 08:17:40;;;;;;;0.67;0.40;;;;;;;;;;5068415;28;20078;-58
2023/11/07 08:20:19;;;;;;;1.13;0.60;;;;;;;;;;5072125;28;20028;-57
2023/11/07 08:22:46;;;;;;;1.60;0.83;;;;;;;;;;5072299;28;20361;-57
2023/11/07 08:25:14;;;;;;;0.83;0.53;;;;;;;;;;5072360;28;20505;-57
2023/11/07 08:27:41;;;;;;;0.40;0.40;;;;;;;;;;5072059;28;20028;-57
2023/11/07 08:30:14;;;;;;;0.80;0.63;;;;;;;;;;5070283;28;20494;-57
2023/11/07 08:32:42;;;;;;;1.30;0.80;;;;;;;;;;5067115;28;20029;-57
2023/11/07 08:35:11;;;;;;;0.80;0.50;;;;;;;;;;5067331;28;20039;-57
2023/11/07 08:37:41;;;;;;;1.37;0.40;;;;;;;;;;5067292;28;20036;-57
2023/11/07 08:40:08;;;;;;;2.30;0.90;;;;;;;;;;5069038;28;20407;-57
2023/11/07 08:42:42;;;;;;;0.87;0.53;;;;;;;;;;5071880;28;20035;-57
2023/11/07 08:45:15;;;;;;;0.53;0.43;;;;;;;;;;5071755;28;20103;-57
2023/11/07 08:47:43;;;;;;;0.40;0.30;;;;;;;;;;5072290;28;20838;-57
2023/11/07 08:50:13;;;;;;;2.03;1.10;;;;;;;;;;5071732;28;20086;-57
2023/11/07 08:52:41;;;;;;;0.63;0.47;;;;;;;;;;5069809;28;20032;-58
2023/11/07 08:55:08;;;;;;;1.80;0.70;;;;;;;;;;5067107;28;20488;-57
2023/11/07 08:57:56;;;;;;;0.63;0.53;;;;;;;;;;5055212;28;20025;-57
2023/11/07 09:00:22;;;;;;;1.93;1.10;;;;;;;;;;5046259;28;20391;-57
2023/11/07 09:02:49;;;;;;;0.50;0.40;;;;;;;;;;5049132;28;20091;-57
2023/11/07 09:05:19;;;;;;;0.50;0.47;;;;;;;;;;5053679;28;20044;-57
2023/11/07 09:07:46;;;;;;;1.83;0.90;;;;;;;;;;5071677;28;20064;-57
2023/11/07 09:10:13;;;;;;;2.03;0.97;;;;;;;;;;5071756;28;20025;-57
2023/11/07 09:12:41;;;;;;;0.63;0.50;;;;;;;;;;5071642;28;20349;-58
2023/11/07 09:15:11;;;;;;;0.90;0.60;;;;;;;;;;5069254;28;20074;-57
2023/11/07 09:17:39;;;;;;;1.20;0.80;;;;;;;;;;5066832;28;20572;-57
2023/11/07 09:20:09;;;;;;;2.00;1.00;;;;;;;;;;5070938;28;20024;-57
2023/11/07 09:22:36;;;;;;;4.13;0.87;;;;;;;;;;5086804;28;20035;-57
2023/11/07 09:25:03;;;;;;;0.40;0.40;;;;;;;;;;5088742;28;20023;-57
2023/11/07 09:27:31;;;;;;;2.60;0.73;;;;;;;;;;5091015;28;20421;-58
2023/11/07 09:29:58;;;;;;;1.13;0.80;;;;;;;;;;5071645;28;20625;-57
2023/11/07 09:32:26;;;;;;;3.93;0.70;;;;;;;;;;5071716;28;20028;-57
2023/11/07 09:34:57;;;;;;;0.57;0.47;;;;;;;;;;5075438;28;20020;-57
2023/11/07 09:37:24;;;;;;;0.70;0.50;;;;;;;;;;5073111;28;20414;-57
2023/11/07 09:39:51;;;;;;;1.00;0.53;;;;;;;;;;5088354;28;20081;-57
2023/11/07 09:42:19;;;;;;;1.13;0.80;;;;;;;;;;5090018;28;20691;-57
2023/11/07 09:44:48;;;;;;;1.70;0.83;;;;;;;;;;5090575;28;20016;-57
2023/11/07 09:47:15;;;;;;;1.43;0.87;;;;;;;;;;5090349;28;20027;-57
2023/11/07 09:49:43;;;;;;;1.30;0.50;;;;;;;;;;5083611;28;20036;-57
2023/11/07 09:52:12;;;;;;;0.23;0.23;;;;;;;;;;5075036;28;20028;-57
2023/11/07 09:54:39;;;;;;;1.33;0.47;;;;;;;;;;5075219;28;20032;-57
2023/11/07 09:57:08;;;;;;;1.00;0.73;;;;;;;;;;5086822;28;20032;-57
2023/11/07 09:59:39;;;;;;;0.77;0.60;;;;;;;;;;5093014;28;20036;-57
2023/11/07 10:02:07;;;;;;;1.53;0.90;;;;;;;;;;5090132;28;20071;-57
2023/11/07 10:04:36;;;;;;;0.23;0.23;;;;;;;;;;5090167;28;20443;-57
2023/11/07 10:07:03;;;;;;;1.97;0.73;;;;;;;;;;5090185;28;20017;-57
2023/11/07 10:09:32;;;;;;;2.17;0.60;;;;;;;;;;5075470;28;20482;-57
2023/11/07 10:11:58;;;;;;;1.17;0.60;;;;;;;;;;5074270;28;20383;-58
2023/11/07 10:14:26;;;;;;;1.17;0.80;;;;;;;;;;5074452;28;20059;-57
2023/11/07 10:16:53;;;;;;;1.03;0.60;;;;;;;;;;5074625;28;20060;-57
2023/11/07 10:19:24;;;;;;;1.93;0.73;;;;;;;;;;5075690;28;20070;-57
2023/11/07 10:21:54;;;;;;;1.10;0.50;;;;;;;;;;5089057;28;20028;-57
2023/11/07 10:24:21;;;;;;;0.97;0.60;;;;;;;;;;5089753;28;20021;-57
2023/11/07 10:26:51;;;;;;;0.80;0.80;;;;;;;;;;5089678;28;20028;-58
2023/11/07 10:29:27;;;;;;;0.70;0.50;;;;;;;;;;5088378;28;20043;-57
2023/11/07 10:32:09;;;;;;;1.90;0.60;;;;;;;;;;5070686;28;20016;-58
2023/11/07 10:34:36;;;;;;;2.10;0.67;;;;;;;;;;5074271;28;20537;-57
2023/11/07 10:37:05;;;;;;;0.73;0.47;;;;;;;;;;5074478;28;20436;-57
2023/11/07 10:39:33;;;;;;;0.60;0.37;;;;;;;;;;5073841;28;20040;-57
2023/11/07 10:42:19;;;;;;;0.50;0.33;;;;;;;;;;5078678;28;20036;-57
2023/11/07 10:44:48;;;;;;;2.03;0.77;;;;;;;;;;5074377;28;20032;-57
2023/11/07 10:47:16;;;;;;;0.50;0.37;;;;;;;;;;5069014;28;20099;-57
2023/11/07 10:49:48;;;;;;;0.80;0.63;;;;;;;;;;5068819;28;20033;-57
2023/11/07 10:52:16;;;;;;;0.13;0.13;;;;;;;;;;5078583;28;20059;-57
2023/11/07 10:54:43;;;;;;;2.53;0.50;;;;;;;;;;5091771;28;20046;-57
2023/11/07 10:57:10;;;;;;;0.40;0.40;;;;;;;;;;5085610;28;20021;-57
2023/11/07 10:59:41;;;;;;;2.57;0.90;;;;;;;;;;5073796;28;20021;-57
2023/11/07 11:02:09;;;;;;;1.10;0.67;;;;;;;;;;5077466;28;20040;-57
2023/11/07 11:04:37;;;;;;;0.30;0.27;;;;;;;;;;5093579;28;20034;-58
2023/11/07 11:07:05;;;;;;;0.53;0.40;;;;;;;;;;5085790;28;20021;-57
2023/11/07 11:09:35;;;;;;;5.03;1.30;;;;;;;;;;5068560;28;20399;-57
2023/11/07 11:12:04;;;;;;;0.63;0.60;;;;;;;;;;5068535;28;20075;-57
2023/11/07 11:14:31;;;;;;;6.07;1.03;;;;;;;;;;5068849;28;20025;-57
2023/11/07 11:17:05;;;;;;;0.70;0.60;;;;;;;;;;5070872;28;20035;-57
2023/11/07 11:20:10;;;;;;;1.13;0.87;;;;;;;;;;5078961;28;20023;-57
2023/11/07 11:22:44;;;;;;;1.27;0.60;;;;;;;;;;4992053;28;20381;-57
2023/11/07 11:25:16;;;;;;;14.10;1.08;;;;;;;;;;4991537;28;20026;-57
2023/11/07 11:27:43;;;;;;;0.80;0.70;;;;;;;;;;5049861;28;20032;-57
2023/11/07 11:30:09;;;;;;;0.30;0.30;;;;;;;;;;5089067;28;20028;-57
2023/11/07 11:32:37;;;;;;;0.80;0.50;;;;;;;;;;5075638;28;20036;-57
2023/11/07 11:35:16;;;;;;;1.27;0.83;;;;;;;;;;5068075;28;20029;-57
2023/11/07 11:38:10;;;;;;;11.20;0.77;;;;;;;;;;5068226;28;20016;-57
2023/11/07 11:41:01;;;;;;;1.20;0.73;;;;;;;;;;5069702;28;20067;-57
2023/11/07 11:43:28;;;;;;;1.50;0.50;;;;;;;;;;5075230;28;21387;-57
2023/11/07 11:45:58;;;;;;;0.80;0.50;;;;;;;;;;5093348;28;20080;-57
2023/11/07 11:48:55;;;;;;;0.60;0.30;;;;;;;;;;5093285;28;20054;-58
2023/11/07 11:51:31;;;;;;;0.93;0.53;;;;;;;;;;5091331;28;20021;-57
2023/11/07 11:53:59;;;;;;;3.87;0.77;;;;;;;;;;5088129;28;20039;-57
2023/11/07 11:56:25;;;;;;;1.40;0.63;;;;;;;;;;5077712;28;20545;-57
2023/11/07 11:59:01;;;;;;;6.47;0.57;;;;;;;;;;5067735;28;20021;-57
2023/11/07 12:01:31;;;;;;;0.47;0.30;;;;;;;;;;5069969;28;20055;-57
2023/11/07 12:03:59;;;;;;;0.40;0.40;;;;;;;;;;5092819;28;20089;-57
2023/11/07 12:06:25;;;;;;;0.23;0.20;;;;;;;;;;5092354;28;20101;-57
2023/11/07 12:08:52;;;;;;;0.77;0.50;;;;;;;;;;5088422;28;20024;-57
2023/11/07 12:11:19;;;;;;;0.53;0.20;;;;;;;;;;5072486;28;20024;-57
2023/11/07 12:13:47;;;;;;;0.40;0.40;;;;;;;;;;5070295;28;20024;-57
2023/11/07 12:16:22;;;;;;;0.43;0.30;;;;;;;;;;5067373;28;20034;-57
2023/11/07 12:18:53;;;;;;;2.13;0.97;;;;;;;;;;5047490;28;20029;-58
2023/11/07 12:21:23;;;;;;;0.37;0.27;;;;;;;;;;5058503;28;20059;-57
2023/11/07 12:23:53;;;;;;;0.73;0.40;;;;;;;;;;5069213;28;20037;-57
2023/11/07 12:26:24;;;;;;;0.33;0.23;;;;;;;;;;5072068;28;20348;-58
2023/11/07 12:28:51;;;;;;;33.30;4.13;;;;;;;;;;5070268;28;20063;-57
2023/11/07 12:31:18;;;;;;;7.33;2.87;;;;;;;;;;5072364;28;20440;-57
2023/11/07 12:33:45;;;;;;;1.90;0.77;;;;;;;;;;5072273;28;20021;-57
2023/11/07 12:36:12;;;;;;;1.57;1.00;;;;;;;;;;5069394;28;20025;-57
2023/11/07 12:38:40;;;;;;;4.37;0.77;;;;;;;;;;5084668;28;20475;-57
2023/11/07 12:41:06;;;;;;;1.30;0.63;;;;;;;;;;5087263;28;20024;-57
2023/11/07 12:43:37;;;;;;;0.43;0.30;;;;;;;;;;5079697;28;20046;-57
2023/11/07 12:46:09;;;;;;;1.33;0.77;;;;;;;;;;5068918;28;20035;-57
2023/11/07 12:48:37;;;;;;;2.87;0.93;;;;;;;;;;5071914;28;20161;-58
2023/11/07 12:51:08;;;;;;;2.47;0.93;;;;;;;;;;5091608;28;20063;-57
2023/11/07 12:53:35;;;;;;;1.50;0.73;;;;;;;;;;5092410;28;20020;-57
2023/11/07 12:56:03;;;;;;;2.10;0.90;;;;;;;;;;5091986;28;20099;-57
2023/11/07 12:58:30;;;;;;;1.13;0.60;;;;;;;;;;5055741;28;20037;-57
2023/11/07 13:01:03;;;;;;;7.00;0.80;;;;;;;;;;5056253;28;20024;-57
2023/11/07 13:03:31;;;;;;;1.27;0.90;;;;;;;;;;5075245;28;20040;-57
2023/11/07 13:05:58;;;;;;;1.60;0.90;;;;;;;;;;5066542;28;20028;-57
2023/11/07 13:08:29;;;;;;;1.40;0.80;;;;;;;;;;5071970;28;20116;-57
2023/11/07 13:11:12;;;;;;;1.60;0.83;;;;;;;;;;5075747;28;20031;-57
2023/11/07 13:13:39;;;;;;;1.10;0.57;;;;;;;;;;5076729;28;20395;-57
2023/11/07 13:16:07;;;;;;;1.37;0.50;;;;;;;;;;5075578;28;20480;-57
2023/11/07 13:18:36;;;;;;;1.60;0.83;;;;;;;;;;5075655;28;20017;-57
2023/11/07 13:21:04;;;;;;;1.10;0.70;;;;;;;;;;5073124;28;20171;-57
2023/11/07 13:23:31;;;;;;;7.27;0.93;;;;;;;;;;5070622;28;20119;-57
2023/11/07 13:25:58;;;;;;;1.03;0.67;;;;;;;;;;5081391;28;20476;-57
2023/11/07 13:28:24;;;;;;;0.37;0.30;;;;;;;;;;5090626;28;20056;-57
2023/11/07 13:30:52;;;;;;;1.77;0.90;;;;;;;;;;5092353;28;20360;-57
2023/11/07 13:33:20;;;;;;;1.70;1.00;;;;;;;;;;5087927;28;20025;-57
2023/11/07 13:35:47;;;;;;;1.67;0.80;;;;;;;;;;5075099;28;20150;-57
2023/11/07 13:38:17;;;;;;;0.43;0.37;;;;;;;;;;5075295;28;20549;-58
2023/11/07 13:40:45;;;;;;;0.50;0.40;;;;;;;;;;5075109;28;20055;-57
2023/11/07 13:43:12;;;;;;;0.77;0.40;;;;;;;;;;5076541;28;20040;-57
2023/11/07 13:45:39;;;;;;;1.23;0.53;;;;;;;;;;5090343;28;20024;-57
2023/11/07 13:48:06;;;;;;;0.53;0.37;;;;;;;;;;5090423;28;20035;-57
2023/11/07 13:50:33;;;;;;;0.87;0.23;;;;;;;;;;5090054;28;20942;-57
2023/11/07 13:53:00;;;;;;;1.33;0.77;;;;;;;;;;5089336;28;20035;-57
2023/11/07 13:55:33;;;;;;;9.33;0.77;;;;;;;;;;5074918;28;20024;-57
2023/11/07 13:58:00;;;;;;;0.20;0.20;;;;;;;;;;5074873;28;20484;-57
2023/11/07 14:00:27;;;;;;;1.77;0.63;;;;;;;;;;5075061;28;20472;-57
2023/11/07 14:02:54;;;;;;;1.17;0.70;;;;;;;;;;5087676;28;20434;-58
2023/11/07 14:05:24;;;;;;;1.60;0.53;;;;;;;;;;5072554;28;20449;-57
2023/11/07 14:07:51;;;;;;;0.70;0.50;;;;;;;;;;5070058;28;20374;-57
2023/11/07 14:10:21;;;;;;;2.67;0.50;;;;;;;;;;5069768;28;20045;-57
2023/11/07 14:12:48;;;;;;;1.40;0.73;;;;;;;;;;5071345;28;20025;-57
2023/11/07 14:15:26;;;;;;;1.13;0.70;;;;;;;;;;5072426;28;20040;-58
2023/11/07 14:17:53;;;;;;;1.17;0.80;;;;;;;;;;5090606;28;20028;-57
2023/11/07 14:20:20;;;;;;;0.43;0.30;;;;;;;;;;5074013;28;20029;-57
2023/11/07 14:22:53;;;;;;;9.80;0.60;;;;;;;;;;5084633;28;20085;-58
2023/11/07 14:25:20;;;;;;;0.77;0.43;;;;;;;;;;5094669;28;20054;-58
2023/11/07 14:27:47;;;;;;;0.40;0.27;;;;;;;;;;5090939;28;20032;-57
2023/11/07 14:30:15;;;;;;;0.33;0.33;;;;;;;;;;5069360;28;20491;-58
2023/11/07 14:32:42;;;;;;;1.43;0.50;;;;;;;;;;5069095;28;20028;-58
2023/11/07 14:35:10;;;;;;;1.70;0.20;;;;;;;;;;5088082;28;20036;-58
2023/11/07 14:37:37;;;;;;;1.60;0.70;;;;;;;;;;5089112;28;20032;-58
2023/11/07 14:40:12;;;;;;;0.73;0.30;;;;;;;;;;5092303;28;20035;-57
2023/11/07 14:42:39;;;;;;;0.32;0.30;;;;;;;;;;5093242;28;20107;-57
2023/11/07 14:45:09;;;;;;;1.53;1.20;;;;;;;;;;5075294;28;20021;-57
2023/11/07 14:47:36;;;;;;;6.03;2.70;;;;;;;;;;5073583;28;20495;-58
2023/11/07 14:50:06;;;;;;;11.23;5.47;;;;;;;;;;5071723;28;20089;-58